sensor_id;sensor_type;location;lat;lon;timestamp;temperature;humidity
24800;DHT22;12897;50.812;4.430;2022-11-21T00:01:45;8.20;99.90
24800;DHT22;12897;50.812;4.430;2022-11-21T00:04:15;8.20;99.90
24800;DHT22;12897;50.812;4.430;2022-11-21T00:06:46;8.10;99.90
24800;DHT22;12897;50.812;4.430;2022-11-21T00:09:18;7.90;99.90
24800;DHT22;12897;50.812;4.430;2022-11-21T00:11:50;7.90;99.90
24800;DHT22;12897;50.812;4.430;2022-11-21T00:14:25;7.80;99.90
24800;DHT22;12897;50.812;4.430;2022-11-21T00:17:06;7.80;99.90
24800;DHT22;12897;50.812;4.430;2022-11-21T00:19:39;7.90;99.90
24800;DHT22;12897;50.812;4.430;2022-11-21T00:22:12;7.80;99.90
24800;DHT22;12897;50.812;4.430;2022-11-21T00:24:49;7.80;99.90
24800;DHT22;12897;50.812;4.430;2022-11-21T00:27:24;7.70;99.90
24800;DHT22;12897;50.812;4.430;2022-11-21T00:30:16;7.70;99.90
24800;DHT22;12897;50.812;4.430;2022-11-21T00:32:48;7.60;99.90
24800;DHT22;12897;50.812;4.430;2022-11-21T00:35:34;7.60;99.90
24800;DHT22;12897;50.812;4.430;2022-11-21T00:37:53;7.70;99.90
24800;DHT22;12897;50.812;4.430;2022-11-21T00:40:17;7.60;99.90
24800;DHT22;12897;50.812;4.430;2022-11-21T00:42:45;7.60;99.90
24800;DHT22;12897;50.812;4.430;2022-11-21T00:45:25;7.50;99.90
24800;DHT22;12897;50.812;4.430;2022-11-21T00:47:52;7.60;99.90
24800;DHT22;12897;50.812;4.430;2022-11-21T00:50:27;7.50;99.90
24800;DHT22;12897;50.812;4.430;2022-11-21T00:52:55;7.50;99.90
24800;DHT22;12897;50.812;4.430;2022-11-21T00:55:28;7.60;99.90
24800;DHT22;12897;50.812;4.430;2022-11-21T00:58:05;7.60;99.90
24800;DHT22;12897;50.812;4.430;2022-11-21T01:03:10;7.90;99.90
24800;DHT22;12897;50.812;4.430;2022-11-21T01:08:12;7.90;99.90
24800;DHT22;12897;50.812;4.430;2022-11-21T01:10:51;7.90;99.90
24800;DHT22;12897;50.812;4.430;2022-11-21T01:13:19;7.90;99.90
24800;DHT22;12897;50.812;4.430;2022-11-21T01:15:44;8.10;99.90
24800;DHT22;12897;50.812;4.430;2022-11-21T01:18:14;8.10;99.90
24800;DHT22;12897;50.812;4.430;2022-11-21T01:20:42;8.10;99.90
24800;DHT22;12897;50.812;4.430;2022-11-21T01:23:11;8.00;99.90
24800;DHT22;12897;50.812;4.430;2022-11-21T01:25:42;7.80;99.90
24800;DHT22;12897;50.812;4.430;2022-11-21T01:28:16;7.80;99.90
24800;DHT22;12897;50.812;4.430;2022-11-21T01:30:42;7.60;99.90
24800;DHT22;12897;50.812;4.430;2022-11-21T01:33:14;7.70;99.90
24800;DHT22;12897;50.812;4.430;2022-11-21T01:35:46;7.60;99.90
24800;DHT22;12897;50.812;4.430;2022-11-21T01:38:31;7.60;99.90
24800;DHT22;12897;50.812;4.430;2022-11-21T01:41:06;7.60;99.90
24800;DHT22;12897;50.812;4.430;2022-11-21T01:43:42;7.60;99.90
24800;DHT22;12897;50.812;4.430;2022-11-21T01:46:17;7.70;99.90
24800;DHT22;12897;50.812;4.430;2022-11-21T01:49:10;7.70;99.90
24800;DHT22;12897;50.812;4.430;2022-11-21T01:55:03;7.70;99.90
24800;DHT22;12897;50.812;4.430;2022-11-21T01:57:32;7.50;99.90
24800;DHT22;12897;50.812;4.430;2022-11-21T02:00:09;7.60;99.90
24800;DHT22;12897;50.812;4.430;2022-11-21T02:02:43;7.70;99.90
24800;DHT22;12897;50.812;4.430;2022-11-21T02:05:18;7.90;99.90
24800;DHT22;12897;50.812;4.430;2022-11-21T02:07:56;7.80;99.90
24800;DHT22;12897;50.812;4.430;2022-11-21T02:10:24;7.80;99.90
24800;DHT22;12897;50.812;4.430;2022-11-21T02:12:53;7.80;99.90
24800;DHT22;12897;50.812;4.430;2022-11-21T02:15:29;7.80;99.90
24800;DHT22;12897;50.812;4.430;2022-11-21T02:18:07;7.70;99.90
24800;DHT22;12897;50.812;4.430;2022-11-21T02:20:28;7.70;99.90
24800;DHT22;12897;50.812;4.430;2022-11-21T02:23:22;7.70;99.90
24800;DHT22;12897;50.812;4.430;2022-11-21T02:25:55;7.90;99.90
24800;DHT22;12897;50.812;4.430;2022-11-21T02:28:24;8.00;99.90
24800;DHT22;12897;50.812;4.430;2022-11-21T02:30:54;8.00;99.90
24800;DHT22;12897;50.812;4.430;2022-11-21T02:33:33;8.00;99.90
24800;DHT22;12897;50.812;4.430;2022-11-21T02:38:57;8.10;99.90
24800;DHT22;12897;50.812;4.430;2022-11-21T02:41:33;8.10;99.90
24800;DHT22;12897;50.812;4.430;2022-11-21T02:44:12;8.10;99.90
24800;DHT22;12897;50.812;4.430;2022-11-21T02:46:45;8.10;99.90
24800;DHT22;12897;50.812;4.430;2022-11-21T02:49:22;8.00;99.90
24800;DHT22;12897;50.812;4.430;2022-11-21T02:51:57;8.10;99.90
24800;DHT22;12897;50.812;4.430;2022-11-21T02:54:31;8.10;99.90
24800;DHT22;12897;50.812;4.430;2022-11-21T02:57:07;8.00;99.90
24800;DHT22;12897;50.812;4.430;2022-11-21T02:59:45;7.80;99.90
24800;DHT22;12897;50.812;4.430;2022-11-21T03:02:26;7.70;99.90
24800;DHT22;12897;50.812;4.430;2022-11-21T03:05:01;7.60;99.90
24800;DHT22;12897;50.812;4.430;2022-11-21T03:07:37;7.60;99.90
24800;DHT22;12897;50.812;4.430;2022-11-21T03:10:03;7.60;99.90
24800;DHT22;12897;50.812;4.430;2022-11-21T03:12:38;7.50;99.90
24800;DHT22;12897;50.812;4.430;2022-11-21T03:15:12;7.60;99.90
24800;DHT22;12897;50.812;4.430;2022-11-21T03:17:46;7.50;99.90
24800;DHT22;12897;50.812;4.430;2022-11-21T03:20:13;7.60;99.90
24800;DHT22;12897;50.812;4.430;2022-11-21T03:22:46;7.60;99.90
24800;DHT22;12897;50.812;4.430;2022-11-21T03:25:15;7.70;99.90
24800;DHT22;12897;50.812;4.430;2022-11-21T03:27:54;7.60;99.90
24800;DHT22;12897;50.812;4.430;2022-11-21T03:30:22;7.60;99.90
24800;DHT22;12897;50.812;4.430;2022-11-21T03:32:57;7.70;99.90
24800;DHT22;12897;50.812;4.430;2022-11-21T03:35:26;7.70;99.90
24800;DHT22;12897;50.812;4.430;2022-11-21T03:37:55;7.80;99.90
24800;DHT22;12897;50.812;4.430;2022-11-21T03:40:26;7.60;99.90
24800;DHT22;12897;50.812;4.430;2022-11-21T03:43:01;7.50;99.90
24800;DHT22;12897;50.812;4.430;2022-11-21T03:45:23;7.60;99.90
24800;DHT22;12897;50.812;4.430;2022-11-21T03:47:52;7.60;99.90
24800;DHT22;12897;50.812;4.430;2022-11-21T03:50:22;7.70;99.90
24800;DHT22;12897;50.812;4.430;2022-11-21T03:52:55;7.70;99.90
24800;DHT22;12897;50.812;4.430;2022-11-21T03:55:22;7.70;99.90
24800;DHT22;12897;50.812;4.430;2022-11-21T03:57:56;7.50;99.90
24800;DHT22;12897;50.812;4.430;2022-11-21T04:00:22;7.50;99.90
24800;DHT22;12897;50.812;4.430;2022-11-21T04:02:57;7.40;99.90
24800;DHT22;12897;50.812;4.430;2022-11-21T04:05:28;7.40;99.90
24800;DHT22;12897;50.812;4.430;2022-11-21T04:08:05;7.50;99.90
24800;DHT22;12897;50.812;4.430;2022-11-21T04:10:45;7.50;99.90
24800;DHT22;12897;50.812;4.430;2022-11-21T04:13:14;7.50;99.90
24800;DHT22;12897;50.812;4.430;2022-11-21T04:15:44;7.50;99.90
24800;DHT22;12897;50.812;4.430;2022-11-21T04:18:16;7.60;99.90
24800;DHT22;12897;50.812;4.430;2022-11-21T04:20:49;7.50;99.90
24800;DHT22;12897;50.812;4.430;2022-11-21T04:23:13;7.40;99.90
24800;DHT22;12897;50.812;4.430;2022-11-21T04:25:45;7.40;99.90
24800;DHT22;12897;50.812;4.430;2022-11-21T04:28:12;7.50;99.90
24800;DHT22;12897;50.812;4.430;2022-11-21T04:30:45;7.40;99.90
24800;DHT22;12897;50.812;4.430;2022-11-21T04:33:22;7.40;99.90
24800;DHT22;12897;50.812;4.430;2022-11-21T04:35:52;7.40;99.90
24800;DHT22;12897;50.812;4.430;2022-11-21T04:38:21;7.40;99.90
24800;DHT22;12897;50.812;4.430;2022-11-21T04:40:51;7.40;99.90
24800;DHT22;12897;50.812;4.430;2022-11-21T04:43:27;7.30;99.90
24800;DHT22;12897;50.812;4.430;2022-11-21T04:45:59;7.40;99.90
24800;DHT22;12897;50.812;4.430;2022-11-21T04:48:28;7.50;99.90
24800;DHT22;12897;50.812;4.430;2022-11-21T04:50:59;7.50;99.90
24800;DHT22;12897;50.812;4.430;2022-11-21T04:53:31;7.50;99.90
24800;DHT22;12897;50.812;4.430;2022-11-21T04:56:04;7.50;99.90
24800;DHT22;12897;50.812;4.430;2022-11-21T04:58:41;7.50;99.90
24800;DHT22;12897;50.812;4.430;2022-11-21T05:01:09;7.50;99.90
24800;DHT22;12897;50.812;4.430;2022-11-21T05:03:40;7.50;99.90
24800;DHT22;12897;50.812;4.430;2022-11-21T05:06:09;7.50;99.90
24800;DHT22;12897;50.812;4.430;2022-11-21T05:08:41;7.50;99.90
24800;DHT22;12897;50.812;4.430;2022-11-21T05:11:12;7.60;99.90
24800;DHT22;12897;50.812;4.430;2022-11-21T05:13:59;7.50;99.90
24800;DHT22;12897;50.812;4.430;2022-11-21T05:16:32;7.50;99.90
24800;DHT22;12897;50.812;4.430;2022-11-21T05:19:00;7.40;99.90
24800;DHT22;12897;50.812;4.430;2022-11-21T05:21:29;7.40;99.90
24800;DHT22;12897;50.812;4.430;2022-11-21T05:24:22;7.40;99.90
24800;DHT22;12897;50.812;4.430;2022-11-21T05:26:40;7.40;99.90
24800;DHT22;12897;50.812;4.430;2022-11-21T05:29:25;7.50;99.90
24800;DHT22;12897;50.812;4.430;2022-11-21T05:32:03;7.40;99.90
24800;DHT22;12897;50.812;4.430;2022-11-21T05:34:35;7.50;99.90
24800;DHT22;12897;50.812;4.430;2022-11-21T05:37:14;7.40;99.90
24800;DHT22;12897;50.812;4.430;2022-11-21T05:39:54;7.30;99.90
24800;DHT22;12897;50.812;4.430;2022-11-21T05:42:21;7.10;99.90
24800;DHT22;12897;50.812;4.430;2022-11-21T05:44:52;7.20;99.90
24800;DHT22;12897;50.812;4.430;2022-11-21T05:47:21;7.20;99.90
24800;DHT22;12897;50.812;4.430;2022-11-21T05:49:51;7.20;99.90
24800;DHT22;12897;50.812;4.430;2022-11-21T05:52:22;7.20;99.90
24800;DHT22;12897;50.812;4.430;2022-11-21T05:54:54;7.00;99.90
24800;DHT22;12897;50.812;4.430;2022-11-21T05:57:24;6.90;99.90
24800;DHT22;12897;50.812;4.430;2022-11-21T06:00:04;6.80;99.90
24800;DHT22;12897;50.812;4.430;2022-11-21T06:02:25;6.80;99.90
24800;DHT22;12897;50.812;4.430;2022-11-21T06:05:11;6.70;99.90
24800;DHT22;12897;50.812;4.430;2022-11-21T06:07:38;6.60;99.90
24800;DHT22;12897;50.812;4.430;2022-11-21T06:10:11;6.50;99.90
24800;DHT22;12897;50.812;4.430;2022-11-21T06:12:40;6.50;99.90
24800;DHT22;12897;50.812;4.430;2022-11-21T06:15:14;6.50;99.90
24800;DHT22;12897;50.812;4.430;2022-11-21T06:17:48;6.40;99.90
24800;DHT22;12897;50.812;4.430;2022-11-21T06:20:24;6.50;99.90
24800;DHT22;12897;50.812;4.430;2022-11-21T06:22:45;6.50;99.90
24800;DHT22;12897;50.812;4.430;2022-11-21T06:25:23;6.60;99.90
24800;DHT22;12897;50.812;4.430;2022-11-21T06:27:46;6.40;99.90
24800;DHT22;12897;50.812;4.430;2022-11-21T06:30:20;6.40;99.90
24800;DHT22;12897;50.812;4.430;2022-11-21T06:32:47;6.40;99.90
24800;DHT22;12897;50.812;4.430;2022-11-21T06:35:23;6.50;99.90
24800;DHT22;12897;50.812;4.430;2022-11-21T06:37:52;6.70;99.90
24800;DHT22;12897;50.812;4.430;2022-11-21T06:40:23;6.70;99.90
24800;DHT22;12897;50.812;4.430;2022-11-21T06:42:55;6.70;99.90
24800;DHT22;12897;50.812;4.430;2022-11-21T06:45:23;6.70;99.90
24800;DHT22;12897;50.812;4.430;2022-11-21T06:47:55;6.60;99.90
24800;DHT22;12897;50.812;4.430;2022-11-21T06:50:32;6.50;99.90
24800;DHT22;12897;50.812;4.430;2022-11-21T06:53:08;6.40;99.90
24800;DHT22;12897;50.812;4.430;2022-11-21T06:55:38;6.40;99.90
24800;DHT22;12897;50.812;4.430;2022-11-21T06:58:06;6.30;99.90
24800;DHT22;12897;50.812;4.430;2022-11-21T07:00:46;6.40;99.90
24800;DHT22;12897;50.812;4.430;2022-11-21T07:03:09;6.30;99.90
24800;DHT22;12897;50.812;4.430;2022-11-21T07:05:38;6.20;99.90
24800;DHT22;12897;50.812;4.430;2022-11-21T07:08:09;6.20;99.90
24800;DHT22;12897;50.812;4.430;2022-11-21T07:10:36;6.20;99.90
24800;DHT22;12897;50.812;4.430;2022-11-21T07:13:09;6.20;99.90
24800;DHT22;12897;50.812;4.430;2022-11-21T07:15:55;6.10;99.90
24800;DHT22;12897;50.812;4.430;2022-11-21T07:18:25;6.10;99.90
24800;DHT22;12897;50.812;4.430;2022-11-21T07:20:57;6.20;99.90
24800;DHT22;12897;50.812;4.430;2022-11-21T07:23:28;6.10;99.90
24800;DHT22;12897;50.812;4.430;2022-11-21T07:26:04;6.10;99.90
24800;DHT22;12897;50.812;4.430;2022-11-21T07:28:33;6.10;99.90
24800;DHT22;12897;50.812;4.430;2022-11-21T07:31:09;6.20;99.90
24800;DHT22;12897;50.812;4.430;2022-11-21T07:33:34;6.20;99.90
24800;DHT22;12897;50.812;4.430;2022-11-21T07:36:04;6.30;99.90
24800;DHT22;12897;50.812;4.430;2022-11-21T07:38:38;6.30;99.90
24800;DHT22;12897;50.812;4.430;2022-11-21T07:41:04;6.20;99.90
24800;DHT22;12897;50.812;4.430;2022-11-21T07:43:33;6.20;99.90
24800;DHT22;12897;50.812;4.430;2022-11-21T07:46:00;6.20;99.90
24800;DHT22;12897;50.812;4.430;2022-11-21T07:48:28;6.20;99.90
24800;DHT22;12897;50.812;4.430;2022-11-21T07:50:57;6.20;99.90
24800;DHT22;12897;50.812;4.430;2022-11-21T07:53:24;6.30;99.90
24800;DHT22;12897;50.812;4.430;2022-11-21T07:55:52;6.40;99.90
24800;DHT22;12897;50.812;4.430;2022-11-21T07:58:20;6.30;99.90
24800;DHT22;12897;50.812;4.430;2022-11-21T08:00:47;6.40;99.90
24800;DHT22;12897;50.812;4.430;2022-11-21T08:03:15;6.80;99.90
24800;DHT22;12897;50.812;4.430;2022-11-21T08:05:43;6.90;99.90
24800;DHT22;12897;50.812;4.430;2022-11-21T08:08:12;7.10;99.90
24800;DHT22;12897;50.812;4.430;2022-11-21T08:10:44;7.30;99.90
24800;DHT22;12897;50.812;4.430;2022-11-21T08:13:13;7.40;99.90
24800;DHT22;12897;50.812;4.430;2022-11-21T08:15:41;7.30;99.90
24800;DHT22;12897;50.812;4.430;2022-11-21T08:18:11;7.30;99.90
24800;DHT22;12897;50.812;4.430;2022-11-21T08:20:40;7.20;99.90
24800;DHT22;12897;50.812;4.430;2022-11-21T08:23:15;7.20;99.90
24800;DHT22;12897;50.812;4.430;2022-11-21T08:25:42;7.20;99.90
24800;DHT22;12897;50.812;4.430;2022-11-21T08:28:14;7.40;99.90
24800;DHT22;12897;50.812;4.430;2022-11-21T08:30:41;7.30;99.90
24800;DHT22;12897;50.812;4.430;2022-11-21T08:33:13;7.20;99.90
24800;DHT22;12897;50.812;4.430;2022-11-21T08:35:43;7.10;99.90
24800;DHT22;12897;50.812;4.430;2022-11-21T08:38:20;7.20;99.90
24800;DHT22;12897;50.812;4.430;2022-11-21T08:40:49;7.20;99.90
24800;DHT22;12897;50.812;4.430;2022-11-21T08:43:19;7.30;99.90
24800;DHT22;12897;50.812;4.430;2022-11-21T08:45:46;7.30;99.90
24800;DHT22;12897;50.812;4.430;2022-11-21T08:48:15;7.40;99.90
24800;DHT22;12897;50.812;4.430;2022-11-21T08:50:45;7.50;99.90
24800;DHT22;12897;50.812;4.430;2022-11-21T08:53:14;7.50;99.90
24800;DHT22;12897;50.812;4.430;2022-11-21T08:55:43;7.60;99.90
24800;DHT22;12897;50.812;4.430;2022-11-21T08:58:11;7.60;99.90
24800;DHT22;12897;50.812;4.430;2022-11-21T09:00:38;7.60;99.90
24800;DHT22;12897;50.812;4.430;2022-11-21T09:03:08;7.60;99.90
24800;DHT22;12897;50.812;4.430;2022-11-21T09:05:35;7.60;99.90
24800;DHT22;12897;50.812;4.430;2022-11-21T09:08:03;7.60;99.90
24800;DHT22;12897;50.812;4.430;2022-11-21T09:10:31;7.70;99.90
24800;DHT22;12897;50.812;4.430;2022-11-21T09:12:59;7.80;99.90
24800;DHT22;12897;50.812;4.430;2022-11-21T09:15:28;8.00;99.90
24800;DHT22;12897;50.812;4.430;2022-11-21T09:18:19;8.20;99.90
24800;DHT22;12897;50.812;4.430;2022-11-21T09:20:47;8.40;99.90
24800;DHT22;12897;50.812;4.430;2022-11-21T09:23:16;8.60;99.90
24800;DHT22;12897;50.812;4.430;2022-11-21T09:25:44;8.40;99.90
24800;DHT22;12897;50.812;4.430;2022-11-21T09:28:20;8.40;99.90
24800;DHT22;12897;50.812;4.430;2022-11-21T09:30:44;8.50;99.90
24800;DHT22;12897;50.812;4.430;2022-11-21T09:33:15;8.60;99.90
24800;DHT22;12897;50.812;4.430;2022-11-21T09:35:43;8.80;99.90
24800;DHT22;12897;50.812;4.430;2022-11-21T09:38:11;8.70;99.90
24800;DHT22;12897;50.812;4.430;2022-11-21T09:40:42;8.80;99.90
24800;DHT22;12897;50.812;4.430;2022-11-21T09:45:58;9.10;99.90
24800;DHT22;12897;50.812;4.430;2022-11-21T09:48:32;9.40;99.90
24800;DHT22;12897;50.812;4.430;2022-11-21T09:51:10;9.20;99.90
24800;DHT22;12897;50.812;4.430;2022-11-21T09:53:35;9.20;99.90
24800;DHT22;12897;50.812;4.430;2022-11-21T09:56:14;9.20;99.90
24800;DHT22;12897;50.812;4.430;2022-11-21T10:01:17;9.10;99.90
24800;DHT22;12897;50.812;4.430;2022-11-21T10:03:49;9.00;99.90
24800;DHT22;12897;50.812;4.430;2022-11-21T10:06:28;9.00;99.90
24800;DHT22;12897;50.812;4.430;2022-11-21T10:09:19;9.10;99.90
24800;DHT22;12897;50.812;4.430;2022-11-21T10:31:28;8.20;99.90
24800;DHT22;12897;50.812;4.430;2022-11-21T10:33:58;8.50;99.90
24800;DHT22;12897;50.812;4.430;2022-11-21T10:36:30;8.60;99.90
24800;DHT22;12897;50.812;4.430;2022-11-21T10:39:05;8.50;99.90
24800;DHT22;12897;50.812;4.430;2022-11-21T10:41:39;8.60;99.90
24800;DHT22;12897;50.812;4.430;2022-11-21T10:44:30;8.50;99.90
24800;DHT22;12897;50.812;4.430;2022-11-21T10:47:19;8.50;99.90
24800;DHT22;12897;50.812;4.430;2022-11-21T10:49:47;8.60;99.90
24800;DHT22;12897;50.812;4.430;2022-11-21T10:52:18;8.50;99.90
24800;DHT22;12897;50.812;4.430;2022-11-21T10:55:07;8.80;99.90
24800;DHT22;12897;50.812;4.430;2022-11-21T10:57:42;9.00;99.90
24800;DHT22;12897;50.812;4.430;2022-11-21T11:00:15;9.00;99.90
24800;DHT22;12897;50.812;4.430;2022-11-21T11:03:03;9.10;99.90
24800;DHT22;12897;50.812;4.430;2022-11-21T11:05:36;9.00;99.90
24800;DHT22;12897;50.812;4.430;2022-11-21T11:08:17;9.10;99.90
24800;DHT22;12897;50.812;4.430;2022-11-21T11:11:11;9.30;99.90
24800;DHT22;12897;50.812;4.430;2022-11-21T11:13:49;9.40;99.90
24800;DHT22;12897;50.812;4.430;2022-11-21T11:16:19;9.50;99.90
24800;DHT22;12897;50.812;4.430;2022-11-21T11:19:19;9.50;99.90
24800;DHT22;12897;50.812;4.430;2022-11-21T11:24:24;9.10;99.90
24800;DHT22;12897;50.812;4.430;2022-11-21T11:27:00;9.10;99.90
24800;DHT22;12897;50.812;4.430;2022-11-21T11:29:33;9.10;99.90
24800;DHT22;12897;50.812;4.430;2022-11-21T11:32:20;9.20;99.90
24800;DHT22;12897;50.812;4.430;2022-11-21T11:34:59;9.30;99.90
24800;DHT22;12897;50.812;4.430;2022-11-21T11:37:38;9.20;99.90
24800;DHT22;12897;50.812;4.430;2022-11-21T11:48:41;9.10;99.90
24800;DHT22;12897;50.812;4.430;2022-11-21T11:51:26;9.10;99.90
24800;DHT22;12897;50.812;4.430;2022-11-21T11:53:56;9.10;99.90
24800;DHT22;12897;50.812;4.430;2022-11-21T11:56:30;9.30;99.90
24800;DHT22;12897;50.812;4.430;2022-11-21T11:59:21;9.30;99.90
24800;DHT22;12897;50.812;4.430;2022-11-21T12:02:03;9.40;99.90
24800;DHT22;12897;50.812;4.430;2022-11-21T12:07:38;9.70;99.90
24800;DHT22;12897;50.812;4.430;2022-11-21T12:13:01;9.80;99.90
24800;DHT22;12897;50.812;4.430;2022-11-21T12:15:26;9.70;99.90
24800;DHT22;12897;50.812;4.430;2022-11-21T12:21:12;9.90;99.90
24800;DHT22;12897;50.812;4.430;2022-11-21T12:23:54;9.80;99.90
24800;DHT22;12897;50.812;4.430;2022-11-21T12:26:58;9.80;99.90
24800;DHT22;12897;50.812;4.430;2022-11-21T12:29:54;9.80;99.90
24800;DHT22;12897;50.812;4.430;2022-11-21T12:32:28;9.90;99.90
24800;DHT22;12897;50.812;4.430;2022-11-21T12:41:27;9.80;99.90
24800;DHT22;12897;50.812;4.430;2022-11-21T12:50:06;9.80;99.90
24800;DHT22;12897;50.812;4.430;2022-11-21T12:52:55;9.80;99.90
24800;DHT22;12897;50.812;4.430;2022-11-21T12:55:48;9.90;99.90
24800;DHT22;12897;50.812;4.430;2022-11-21T13:03:44;10.20;99.90
24800;DHT22;12897;50.812;4.430;2022-11-21T13:06:18;10.40;99.90
24800;DHT22;12897;50.812;4.430;2022-11-21T13:08:48;10.50;99.90
24800;DHT22;12897;50.812;4.430;2022-11-21T13:25:12;10.20;99.90
24800;DHT22;12897;50.812;4.430;2022-11-21T13:27:44;10.30;99.90
24800;DHT22;12897;50.812;4.430;2022-11-21T13:32:46;10.30;99.90
24800;DHT22;12897;50.812;4.430;2022-11-21T13:38:05;10.20;99.90
24800;DHT22;12897;50.812;4.430;2022-11-21T13:40:38;10.20;99.90
24800;DHT22;12897;50.812;4.430;2022-11-21T13:45:49;10.20;99.90
24800;DHT22;12897;50.812;4.430;2022-11-21T13:48:36;10.10;99.90
24800;DHT22;12897;50.812;4.430;2022-11-21T13:51:27;10.00;99.90
24800;DHT22;12897;50.812;4.430;2022-11-21T14:00:24;10.20;99.90
24800;DHT22;12897;50.812;4.430;2022-11-21T14:08:22;10.00;99.90
24800;DHT22;12897;50.812;4.430;2022-11-21T14:10:52;9.90;99.90
24800;DHT22;12897;50.812;4.430;2022-11-21T14:18:42;9.90;99.90
24800;DHT22;12897;50.812;4.430;2022-11-21T14:24:02;10.00;99.90
24800;DHT22;12897;50.812;4.430;2022-11-21T14:26:37;9.80;99.90
24800;DHT22;12897;50.812;4.430;2022-11-21T14:31:56;10.00;99.90
24800;DHT22;12897;50.812;4.430;2022-11-21T14:34:29;10.00;99.90
24800;DHT22;12897;50.812;4.430;2022-11-21T14:37:03;9.90;99.90
24800;DHT22;12897;50.812;4.430;2022-11-21T14:39:32;9.80;99.90
24800;DHT22;12897;50.812;4.430;2022-11-21T14:42:02;9.80;99.90
24800;DHT22;12897;50.812;4.430;2022-11-21T14:44:30;9.90;99.90
24800;DHT22;12897;50.812;4.430;2022-11-21T14:47:18;10.00;99.90
24800;DHT22;12897;50.812;4.430;2022-11-21T14:49:56;10.10;99.90
24800;DHT22;12897;50.812;4.430;2022-11-21T14:52:29;10.10;99.90
24800;DHT22;12897;50.812;4.430;2022-11-21T14:55:02;10.10;99.90
24800;DHT22;12897;50.812;4.430;2022-11-21T14:57:34;10.00;99.90
24800;DHT22;12897;50.812;4.430;2022-11-21T15:00:05;10.00;99.90
24800;DHT22;12897;50.812;4.430;2022-11-21T15:02:34;10.10;99.90
24800;DHT22;12897;50.812;4.430;2022-11-21T15:05:07;10.10;99.90
24800;DHT22;12897;50.812;4.430;2022-11-21T15:07:40;10.00;99.90
24800;DHT22;12897;50.812;4.430;2022-11-21T15:10:13;10.00;99.90
24800;DHT22;12897;50.812;4.430;2022-11-21T15:15:35;9.90;99.90
24800;DHT22;12897;50.812;4.430;2022-11-21T15:18:10;9.80;99.90
24800;DHT22;12897;50.812;4.430;2022-11-21T15:20:35;9.90;99.90
24800;DHT22;12897;50.812;4.430;2022-11-21T15:23:04;10.00;99.90
24800;DHT22;12897;50.812;4.430;2022-11-21T15:25:46;9.90;99.90
24800;DHT22;12897;50.812;4.430;2022-11-21T15:28:15;9.90;99.90
24800;DHT22;12897;50.812;4.430;2022-11-21T15:30:45;9.80;99.90
24800;DHT22;12897;50.812;4.430;2022-11-21T15:33:15;9.70;99.90
24800;DHT22;12897;50.812;4.430;2022-11-21T15:35:54;9.80;99.90
24800;DHT22;12897;50.812;4.430;2022-11-21T15:38:48;9.80;99.90
24800;DHT22;12897;50.812;4.430;2022-11-21T15:46:35;9.90;99.90
24800;DHT22;12897;50.812;4.430;2022-11-21T15:49:15;10.00;99.90
24800;DHT22;12897;50.812;4.430;2022-11-21T15:51:42;9.90;99.90
24800;DHT22;12897;50.812;4.430;2022-11-21T15:54:15;10.00;99.90
24800;DHT22;12897;50.812;4.430;2022-11-21T15:56:43;9.80;99.90
24800;DHT22;12897;50.812;4.430;2022-11-21T15:59:14;9.90;99.90
24800;DHT22;12897;50.812;4.430;2022-11-21T16:01:41;9.80;99.90
24800;DHT22;12897;50.812;4.430;2022-11-21T16:04:10;9.70;99.90
24800;DHT22;12897;50.812;4.430;2022-11-21T16:06:40;9.70;99.90
24800;DHT22;12897;50.812;4.430;2022-11-21T16:09:13;9.70;99.90
24800;DHT22;12897;50.812;4.430;2022-11-21T16:11:40;9.70;99.90
24800;DHT22;12897;50.812;4.430;2022-11-21T16:14:13;9.70;99.90
24800;DHT22;12897;50.812;4.430;2022-11-21T16:16:54;9.80;99.90
24800;DHT22;12897;50.812;4.430;2022-11-21T16:19:21;9.80;99.90
24800;DHT22;12897;50.812;4.430;2022-11-21T16:21:53;9.90;99.90
24800;DHT22;12897;50.812;4.430;2022-11-21T16:24:26;9.80;99.90
24800;DHT22;12897;50.812;4.430;2022-11-21T16:26:54;9.90;99.90
24800;DHT22;12897;50.812;4.430;2022-11-21T16:29:24;9.80;99.90
24800;DHT22;12897;50.812;4.430;2022-11-21T16:31:53;9.90;99.90
24800;DHT22;12897;50.812;4.430;2022-11-21T16:34:21;10.00;99.90
24800;DHT22;12897;50.812;4.430;2022-11-21T16:36:54;9.90;99.90
24800;DHT22;12897;50.812;4.430;2022-11-21T16:39:26;9.80;99.90
24800;DHT22;12897;50.812;4.430;2022-11-21T16:41:53;9.90;99.90
24800;DHT22;12897;50.812;4.430;2022-11-21T16:44:23;9.90;99.90
24800;DHT22;12897;50.812;4.430;2022-11-21T16:46:54;9.70;99.90
24800;DHT22;12897;50.812;4.430;2022-11-21T16:49:25;9.70;99.90
24800;DHT22;12897;50.812;4.430;2022-11-21T16:51:55;9.50;99.90
24800;DHT22;12897;50.812;4.430;2022-11-21T16:54:24;9.50;99.90
24800;DHT22;12897;50.812;4.430;2022-11-21T16:56:52;9.50;99.90
24800;DHT22;12897;50.812;4.430;2022-11-21T16:59:20;9.60;99.90
24800;DHT22;12897;50.812;4.430;2022-11-21T17:01:49;9.60;99.90
24800;DHT22;12897;50.812;4.430;2022-11-21T17:04:18;9.60;99.90
24800;DHT22;12897;50.812;4.430;2022-11-21T17:06:46;9.50;99.90
24800;DHT22;12897;50.812;4.430;2022-11-21T17:09:17;9.50;99.90
24800;DHT22;12897;50.812;4.430;2022-11-21T17:11:45;9.50;99.90
24800;DHT22;12897;50.812;4.430;2022-11-21T17:14:14;9.50;99.90
24800;DHT22;12897;50.812;4.430;2022-11-21T17:16:41;9.50;99.90
24800;DHT22;12897;50.812;4.430;2022-11-21T17:19:11;9.50;99.90
24800;DHT22;12897;50.812;4.430;2022-11-21T17:21:40;9.40;99.90
24800;DHT22;12897;50.812;4.430;2022-11-21T17:24:08;9.40;99.90
24800;DHT22;12897;50.812;4.430;2022-11-21T17:26:40;9.30;99.90
24800;DHT22;12897;50.812;4.430;2022-11-21T17:29:08;9.40;99.90
24800;DHT22;12897;50.812;4.430;2022-11-21T17:31:37;9.40;99.90
24800;DHT22;12897;50.812;4.430;2022-11-21T17:34:06;9.30;99.90
24800;DHT22;12897;50.812;4.430;2022-11-21T17:36:35;9.30;99.90
24800;DHT22;12897;50.812;4.430;2022-11-21T17:39:04;9.20;99.90
24800;DHT22;12897;50.812;4.430;2022-11-21T17:41:34;9.10;99.90
24800;DHT22;12897;50.812;4.430;2022-11-21T17:44:13;8.90;99.90
24800;DHT22;12897;50.812;4.430;2022-11-21T17:46:43;8.90;99.90
24800;DHT22;12897;50.812;4.430;2022-11-21T17:49:11;8.90;99.90
24800;DHT22;12897;50.812;4.430;2022-11-21T17:51:44;8.90;99.90
24800;DHT22;12897;50.812;4.430;2022-11-21T17:54:13;8.90;99.90
24800;DHT22;12897;50.812;4.430;2022-11-21T17:56:44;8.90;99.90
24800;DHT22;12897;50.812;4.430;2022-11-21T17:59:22;9.00;99.90
24800;DHT22;12897;50.812;4.430;2022-11-21T18:01:51;9.00;99.90
24800;DHT22;12897;50.812;4.430;2022-11-21T18:04:17;8.90;99.90
24800;DHT22;12897;50.812;4.430;2022-11-21T18:06:50;9.00;99.90
24800;DHT22;12897;50.812;4.430;2022-11-21T18:09:17;9.00;99.90
24800;DHT22;12897;50.812;4.430;2022-11-21T18:11:46;9.00;99.90
24800;DHT22;12897;50.812;4.430;2022-11-21T18:14:16;9.00;99.90
24800;DHT22;12897;50.812;4.430;2022-11-21T18:16:49;9.00;99.90
24800;DHT22;12897;50.812;4.430;2022-11-21T18:19:15;9.00;99.90
24800;DHT22;12897;50.812;4.430;2022-11-21T18:21:44;9.10;99.90
24800;DHT22;12897;50.812;4.430;2022-11-21T18:24:17;8.90;99.90
24800;DHT22;12897;50.812;4.430;2022-11-21T18:26:45;8.90;99.90